Time;durP1;ratioP1;P1;durP2;ratioP2;P2;SDS_P1;SDS_P2;PMS_P1;PMS_P2;Temp;Humidity;BMP_temperature;BMP_pressure;BME280_temperature;BME280_humidity;BME280_pressure;Samples;Min_cycle;Max_cycle;Signal;HPM_P1;HPM_P2
2022/07/30 00:02:04;;;;;;;9.15;5.32;;;16.80;99.90;;;;;;5071703;28;20132;-91
2022/07/30 00:04:31;;;;;;;10.38;5.60;;;16.70;99.90;;;;;;5071448;28;20072;-91
2022/07/30 00:06:57;;;;;;;8.43;4.57;;;16.70;99.90;;;;;;5071597;28;20391;-91
2022/07/30 00:09:22;;;;;;;8.43;4.53;;;16.70;99.90;;;;;;5071007;28;20056;-91
2022/07/30 00:11:48;;;;;;;8.93;5.20;;;16.60;99.90;;;;;;5071741;28;20045;-90
2022/07/30 00:14:14;;;;;;;8.13;4.30;;;16.50;99.90;;;;;;5071503;28;20036;-91
2022/07/30 00:16:39;;;;;;;7.00;3.50;;;16.40;99.90;;;;;;5071794;28;20383;-91
2022/07/30 00:19:05;;;;;;;6.60;3.42;;;16.30;99.90;;;;;;5070754;28;20040;-90
2022/07/30 00:21:30;;;;;;;5.90;3.15;;;16.30;99.90;;;;;;5087981;28;20074;-91
2022/07/30 00:23:56;;;;;;;6.80;3.65;;;16.30;99.90;;;;;;5071124;28;20131;-91
2022/07/30 00:26:21;;;;;;;6.78;2.90;;;16.20;99.90;;;;;;5071262;28;20071;-91
2022/07/30 00:28:47;;;;;;;4.68;2.42;;;16.20;99.90;;;;;;5071625;28;20086;-91
2022/07/30 00:31:14;;;;;;;5.15;2.70;;;16.10;99.90;;;;;;5070841;28;20087;-91
2022/07/30 00:33:39;;;;;;;4.88;2.20;;;16.10;99.90;;;;;;5070780;28;20505;-91
2022/07/30 00:36:05;;;;;;;5.22;2.17;;;16.10;99.90;;;;;;5071007;28;20040;-91
2022/07/30 00:38:30;;;;;;;3.47;1.60;;;16.10;99.90;;;;;;5070937;28;20064;-90
2022/07/30 00:40:57;;;;;;;2.75;1.52;;;16.00;99.90;;;;;;5070541;28;20460;-91
2022/07/30 00:43:22;;;;;;;5.15;2.42;;;15.90;99.90;;;;;;5072287;28;20036;-91
2022/07/30 00:45:48;;;;;;;5.93;3.03;;;15.90;99.90;;;;;;5070742;28;20543;-91
2022/07/30 00:48:14;;;;;;;5.45;2.58;;;15.80;99.90;;;;;;5070464;28;20085;-91
2022/07/30 00:50:40;;;;;;;5.25;2.13;;;15.80;99.90;;;;;;5070579;28;20052;-91
2022/07/30 00:53:06;;;;;;;4.72;2.42;;;15.80;99.90;;;;;;5070849;28;20411;-91
2022/07/30 00:55:32;;;;;;;4.50;2.40;;;15.70;99.90;;;;;;5070639;28;20494;-91
2022/07/30 00:57:58;;;;;;;6.20;3.15;;;15.70;99.90;;;;;;5070934;28;20481;-91
2022/07/30 01:00:24;;;;;;;4.68;2.30;;;15.60;99.90;;;;;;5070436;28;20074;-91
2022/07/30 01:02:50;;;;;;;6.40;3.33;;;15.50;99.90;;;;;;5071734;28;20508;-91
2022/07/30 01:05:16;;;;;;;7.18;3.72;;;15.50;99.90;;;;;;5070726;28;20044;-90
2022/07/30 01:07:42;;;;;;;7.03;3.70;;;15.50;99.90;;;;;;5070645;28;20529;-91
2022/07/30 01:10:11;;;;;;;5.85;2.40;;;15.50;99.90;;;;;;5071325;28;20039;-90
2022/07/30 01:12:37;;;;;;;6.90;3.97;;;15.40;99.90;;;;;;5070800;28;20044;-91
2022/07/30 01:15:05;;;;;;;7.72;4.50;;;15.40;99.90;;;;;;5071860;28;20050;-90
2022/07/30 01:17:31;;;;;;;8.00;4.43;;;15.40;99.90;;;;;;5070600;28;20084;-91
2022/07/30 01:20:03;;;;;;;8.10;5.47;;;15.40;99.90;;;;;;5070158;28;20083;-91
2022/07/30 01:23:06;;;;;;;6.55;3.05;;;15.40;99.90;;;;;;5070523;28;20048;-91
2022/07/30 01:25:50;;;;;;;5.07;2.40;;;15.30;99.90;;;;;;5065036;28;20091;-90
2022/07/30 01:28:20;;;;;;;7.22;3.10;;;15.20;99.90;;;;;;5071581;28;20335;-91
2022/07/30 01:30:48;;;;;;;6.35;2.90;;;15.20;99.90;;;;;;5087173;28;20153;-91
2022/07/30 01:33:15;;;;;;;4.75;2.33;;;15.20;99.90;;;;;;5072540;28;20044;-90
2022/07/30 01:35:44;;;;;;;4.35;2.05;;;15.20;99.90;;;;;;5074393;28;20036;-91
2022/07/30 01:38:12;;;;;;;6.90;3.20;;;15.10;99.90;;;;;;5074253;28;20045;-91
2022/07/30 01:40:39;;;;;;;5.75;3.00;;;15.10;99.90;;;;;;5074124;28;20494;-92
2022/07/30 01:43:06;;;;;;;6.93;2.60;;;15.10;99.90;;;;;;5074349;28;20053;-92
2022/07/30 01:45:33;;;;;;;6.10;3.28;;;15.00;99.90;;;;;;5074023;28;20108;-91
2022/07/30 01:48:01;;;;;;;6.88;3.00;;;15.00;99.90;;;;;;5057596;28;20160;-91
2022/07/30 01:50:28;;;;;;;5.38;2.50;;;15.00;99.90;;;;;;5073919;28;20406;-91
2022/07/30 01:52:56;;;;;;;5.40;2.70;;;14.90;99.90;;;;;;5090859;28;20059;-92
2022/07/30 01:55:25;;;;;;;4.75;2.60;;;14.90;99.90;;;;;;5074352;28;20071;-91
2022/07/30 01:57:52;;;;;;;5.47;2.50;;;14.90;99.90;;;;;;5073988;28;20037;-92
2022/07/30 02:00:18;;;;;;;7.00;3.53;;;14.90;99.90;;;;;;5073803;28;20551;-91
2022/07/30 02:02:45;;;;;;;6.32;3.50;;;14.90;99.90;;;;;;5075287;28;20041;-91
2022/07/30 02:05:11;;;;;;;5.63;3.20;;;14.90;99.90;;;;;;5090830;28;20048;-91
2022/07/30 02:07:48;;;;;;;7.53;4.07;;;14.90;99.90;;;;;;5073832;28;20414;-92
2022/07/30 02:10:19;;;;;;;8.18;4.50;;;14.90;99.90;;;;;;5073442;28;20047;-90
2022/07/30 02:12:51;;;;;;;6.82;4.13;;;14.90;99.90;;;;;;5074125;28;20044;-91
2022/07/30 02:15:33;;;;;;;7.50;3.70;;;14.80;99.90;;;;;;5074250;28;20056;-91
2022/07/30 02:18:05;;;;;;;6.25;2.45;;;14.80;99.90;;;;;;5077662;28;20283;-91
2022/07/30 02:20:32;;;;;;;5.53;2.25;;;14.70;99.90;;;;;;5076443;28;20056;-90
2022/07/30 02:23:02;;;;;;;5.95;2.58;;;14.60;99.90;;;;;;5081489;28;20083;-91
2022/07/30 02:25:30;;;;;;;6.38;3.10;;;14.50;99.90;;;;;;5077417;28;20075;-91
2022/07/30 02:28:01;;;;;;;5.43;2.78;;;14.60;99.90;;;;;;5081268;28;20081;-91
2022/07/30 02:30:30;;;;;;;5.75;2.47;;;14.60;99.90;;;;;;5074070;28;20416;-90
2022/07/30 02:33:09;;;;;;;5.63;2.80;;;14.70;99.90;;;;;;5078482;28;20072;-89
2022/07/30 02:35:35;;;;;;;5.65;2.20;;;14.70;99.90;;;;;;5074693;28;20497;-91
2022/07/30 02:38:02;;;;;;;8.70;4.20;;;14.60;99.90;;;;;;5073623;28;20044;-91
2022/07/30 02:40:28;;;;;;;7.65;4.40;;;14.50;99.90;;;;;;5073262;28;20049;-91
2022/07/30 02:42:54;;;;;;;5.43;2.60;;;14.60;99.90;;;;;;5073664;28;20043;-91
2022/07/30 02:45:22;;;;;;;8.75;5.13;;;14.50;99.90;;;;;;5073415;28;20043;-91
2022/07/30 02:47:52;;;;;;;8.40;3.90;;;14.50;99.90;;;;;;5073119;28;20052;-91
2022/07/30 02:50:19;;;;;;;8.80;5.82;;;14.50;99.90;;;;;;5074203;28;20032;-91
2022/07/30 02:52:46;;;;;;;10.25;6.22;;;14.50;99.90;;;;;;5074585;28;20047;-91
2022/07/30 02:55:13;;;;;;;8.80;5.28;;;14.50;99.90;;;;;;5072982;28;20040;-91
2022/07/30 02:57:41;;;;;;;10.93;7.78;;;14.50;99.90;;;;;;5074294;28;20052;-91
2022/07/30 03:00:07;;;;;;;9.27;5.88;;;14.50;99.90;;;;;;5072471;28;20041;-90
2022/07/30 03:02:34;;;;;;;10.07;5.53;;;14.50;99.90;;;;;;5074226;28;20117;-91
2022/07/30 03:05:03;;;;;;;10.32;5.22;;;14.40;99.90;;;;;;5072824;28;20047;-90
2022/07/30 03:07:29;;;;;;;13.25;7.90;;;14.40;99.90;;;;;;5072872;28;20040;-91
2022/07/30 03:09:56;;;;;;;9.82;5.55;;;14.40;99.90;;;;;;5072304;28;20402;-90
2022/07/30 03:12:23;;;;;;;10.80;7.45;;;14.40;99.90;;;;;;5073016;28;20439;-90
2022/07/30 03:14:50;;;;;;;12.95;9.98;;;14.40;99.90;;;;;;5073984;28;20040;-91
2022/07/30 03:17:17;;;;;;;11.65;7.05;;;14.50;99.90;;;;;;5072471;28;20048;-91
2022/07/30 03:19:45;;;;;;;11.80;7.63;;;14.50;99.90;;;;;;5072465;28;20525;-91
2022/07/30 03:22:13;;;;;;;10.73;7.78;;;14.50;99.90;;;;;;5056130;28;20501;-91
2022/07/30 03:24:41;;;;;;;12.73;8.85;;;14.50;99.90;;;;;;5072430;28;20047;-92
2022/07/30 03:27:08;;;;;;;12.77;8.27;;;14.50;99.90;;;;;;5072409;28;20048;-92
2022/07/30 03:29:35;;;;;;;23.63;12.48;;;14.50;99.90;;;;;;5073289;28;20409;-91
2022/07/30 03:32:02;;;;;;;9.13;3.95;;;14.50;99.90;;;;;;5072350;28;20049;-92
2022/07/30 03:34:30;;;;;;;24.02;9.55;;;14.40;99.90;;;;;;5072589;28;20044;-91
2022/07/30 03:36:56;;;;;;;9.93;8.13;;;14.30;99.90;;;;;;5071990;28;20052;-91
2022/07/30 03:39:22;;;;;;;9.13;5.95;;;14.40;99.90;;;;;;5072237;28;20777;-91
2022/07/30 03:41:49;;;;;;;11.35;9.82;;;14.30;99.90;;;;;;5072050;28;20123;-91
2022/07/30 03:44:15;;;;;;;12.73;7.60;;;14.30;99.90;;;;;;5072075;28;20046;-91
2022/07/30 03:46:41;;;;;;;14.10;11.27;;;14.30;99.90;;;;;;5073163;28;20032;-91
2022/07/30 03:49:09;;;;;;;15.27;12.55;;;14.40;99.90;;;;;;5071633;28;20506;-90
2022/07/30 03:51:36;;;;;;;14.52;9.13;;;14.40;99.90;;;;;;5071679;28;20080;-91
2022/07/30 03:54:03;;;;;;;13.07;10.45;;;14.40;99.90;;;;;;5071840;28;20049;-91
2022/07/30 03:56:29;;;;;;;14.52;12.98;;;14.40;99.90;;;;;;5071299;28;20040;-92
2022/07/30 03:58:54;;;;;;;15.93;12.23;;;14.40;99.90;;;;;;5071578;28;20123;-91
2022/07/30 04:01:24;;;;;;;11.38;7.10;;;14.40;99.90;;;;;;5071513;28;20049;-90
2022/07/30 04:03:50;;;;;;;13.45;10.88;;;14.40;99.90;;;;;;5071654;28;20526;-92
2022/07/30 04:06:16;;;;;;;11.23;7.50;;;14.40;99.90;;;;;;5071396;28;20075;-90
2022/07/30 04:08:41;;;;;;;11.75;9.77;;;14.40;99.90;;;;;;5071399;28;20044;-91
2022/07/30 04:11:07;;;;;;;14.88;12.00;;;14.40;99.90;;;;;;5071471;28;20048;-91
2022/07/30 04:13:32;;;;;;;14.30;11.65;;;14.40;99.90;;;;;;5071406;28;20052;-91
2022/07/30 04:16:06;;;;;;;14.48;12.98;;;14.50;99.90;;;;;;5071231;28;20036;-91
2022/07/30 04:18:46;;;;;;;13.57;11.48;;;14.50;99.90;;;;;;5071098;28;20044;-91
2022/07/30 04:21:15;;;;;;;14.50;12.65;;;14.50;99.90;;;;;;5071468;28;20375;-90
2022/07/30 04:23:42;;;;;;;16.00;12.98;;;14.50;99.90;;;;;;5071384;28;20047;-90
2022/07/30 04:26:09;;;;;;;10.10;8.25;;;14.50;99.90;;;;;;5071264;28;20051;-91
2022/07/30 04:28:35;;;;;;;35.13;6.80;;;14.40;99.90;;;;;;5071364;28;20101;-91
2022/07/30 04:31:02;;;;;;;306.00;19.38;;;14.40;99.90;;;;;;5070984;28;20489;-91
2022/07/30 04:33:28;;;;;;;41.63;6.47;;;14.20;99.90;;;;;;5071132;28;20044;-90
2022/07/30 04:35:54;;;;;;;6.72;3.83;;;14.00;99.90;;;;;;5071533;28;20124;-91
2022/07/30 04:38:19;;;;;;;11.30;8.05;;;13.80;99.90;;;;;;5071019;28;20090;-91
2022/07/30 04:40:45;;;;;;;12.30;9.30;;;13.80;99.90;;;;;;5070660;28;20391;-91
2022/07/30 04:43:11;;;;;;;10.10;5.40;;;13.80;99.90;;;;;;5072215;28;20047;-91
2022/07/30 04:45:39;;;;;;;9.40;5.50;;;13.70;99.90;;;;;;5070856;28;20405;-91
2022/07/30 04:48:05;;;;;;;10.82;7.53;;;13.70;99.90;;;;;;5072269;28;20044;-91
2022/07/30 04:50:33;;;;;;;10.27;8.18;;;13.70;99.90;;;;;;5070533;28;20043;-91
2022/07/30 04:53:01;;;;;;;9.35;6.90;;;13.70;99.90;;;;;;5070936;28;20059;-91
2022/07/30 04:55:27;;;;;;;9.77;5.30;;;13.70;99.90;;;;;;5070572;28;20055;-91
2022/07/30 04:57:55;;;;;;;10.18;8.10;;;13.60;99.90;;;;;;5070987;28;20421;-91
2022/07/30 05:00:20;;;;;;;13.55;10.00;;;13.60;99.90;;;;;;5070159;28;20052;-91
2022/07/30 05:02:48;;;;;;;19.73;9.25;;;13.60;99.90;;;;;;5070910;28;20040;-90
2022/07/30 05:05:16;;;;;;;20.38;10.40;;;13.60;99.90;;;;;;5070843;28;20106;-90
2022/07/30 05:07:42;;;;;;;39.78;18.40;;;13.60;99.90;;;;;;5069862;28;20086;-91
2022/07/30 05:10:10;;;;;;;23.48;10.27;;;13.70;99.90;;;;;;5070202;28;20048;-91
2022/07/30 05:12:36;;;;;;;41.95;18.75;;;13.70;99.90;;;;;;5071639;28;20060;-92
2022/07/30 05:15:07;;;;;;;22.67;9.80;;;13.80;99.90;;;;;;5070666;28;20041;-91
2022/07/30 05:17:33;;;;;;;34.63;16.33;;;13.80;99.90;;;;;;5070835;28;20422;-92
2022/07/30 05:19:59;;;;;;;43.28;11.80;;;13.90;99.90;;;;;;5069946;28;20055;-91
2022/07/30 05:22:26;;;;;;;89.07;21.05;;;13.90;99.90;;;;;;5070591;28;20044;-92
2022/07/30 05:24:52;;;;;;;65.88;18.90;;;14.00;99.90;;;;;;5070330;28;20522;-91
2022/07/30 05:27:19;;;;;;;57.58;17.02;;;14.10;99.90;;;;;;5070615;28;20040;-91
2022/07/30 05:29:45;;;;;;;35.20;10.60;;;14.20;99.90;;;;;;5070135;28;20045;-91
2022/07/30 05:32:12;;;;;;;51.72;19.00;;;14.20;99.90;;;;;;5070362;28;20560;-92
2022/07/30 05:34:37;;;;;;;50.20;21.65;;;14.20;99.90;;;;;;5070359;28;20393;-92
2022/07/30 05:37:03;;;;;;;28.95;15.70;;;14.30;99.90;;;;;;5070629;28;20119;-91
2022/07/30 05:39:29;;;;;;;36.65;11.18;;;14.40;99.90;;;;;;5070054;28;20045;-92
2022/07/30 05:41:54;;;;;;;30.05;11.15;;;14.40;99.90;;;;;;5070408;28;20047;-92
2022/07/30 05:44:20;;;;;;;23.08;10.02;;;14.50;99.90;;;;;;5070222;28;20052;-92
2022/07/30 05:46:46;;;;;;;44.17;15.20;;;14.50;99.90;;;;;;5069611;28;20135;-92
2022/07/30 05:49:11;;;;;;;39.92;18.83;;;14.60;99.90;;;;;;5069476;28;20044;-92
2022/07/30 05:51:37;;;;;;;26.42;15.95;;;14.70;99.90;;;;;;5070376;28;20066;-92
2022/07/30 05:54:04;;;;;;;27.40;10.95;;;14.80;99.90;;;;;;5070369;28;20041;-92
2022/07/30 05:56:29;;;;;;;33.28;17.38;;;14.80;99.90;;;;;;5070048;28;20083;-92
2022/07/30 05:58:55;;;;;;;29.52;15.98;;;14.90;99.90;;;;;;5070165;28;20052;-92
2022/07/30 06:01:20;;;;;;;35.67;12.73;;;14.90;99.90;;;;;;5069776;28;20051;-92
2022/07/30 06:03:46;;;;;;;29.85;16.98;;;15.00;99.90;;;;;;5069947;28;20048;-92
2022/07/30 06:06:12;;;;;;;36.75;14.15;;;15.10;99.90;;;;;;5070008;28;20047;-92
2022/07/30 06:08:37;;;;;;;55.42;22.73;;;15.20;99.90;;;;;;5069911;28;20044;-92
2022/07/30 06:11:03;;;;;;;40.05;20.33;;;15.20;99.90;;;;;;5069465;28;20040;-91
2022/07/30 06:13:29;;;;;;;72.50;23.05;;;15.30;99.90;;;;;;5071317;28;20044;-92
2022/07/30 06:15:55;;;;;;;60.63;21.33;;;15.30;99.90;;;;;;5069921;28;20544;-91
2022/07/30 06:18:21;;;;;;;38.65;21.48;;;15.50;99.90;;;;;;5069957;28;20667;-92
2022/07/30 06:20:48;;;;;;;41.60;16.95;;;15.50;99.90;;;;;;5073879;28;20040;-92
2022/07/30 06:23:14;;;;;;;45.75;24.35;;;15.60;99.90;;;;;;5073582;28;20044;-92
2022/07/30 06:25:39;;;;;;;28.45;23.17;;;15.60;99.90;;;;;;5073612;28;20120;-91
2022/07/30 06:28:05;;;;;;;25.25;15.93;;;15.70;99.90;;;;;;5073830;28;20123;-91
2022/07/30 06:30:31;;;;;;;23.77;20.63;;;15.80;99.90;;;;;;5073203;28;20536;-91
2022/07/30 06:32:57;;;;;;;31.48;23.15;;;15.80;99.90;;;;;;5073628;28;20486;-91
2022/07/30 06:35:22;;;;;;;28.83;23.35;;;15.90;99.90;;;;;;5073672;28;20105;-92
2022/07/30 06:37:48;;;;;;;28.85;23.25;;;16.00;99.90;;;;;;5073408;28;20037;-92
2022/07/30 06:40:13;;;;;;;24.40;21.80;;;16.10;99.90;;;;;;5072887;28;20127;-91
2022/07/30 06:42:39;;;;;;;26.10;17.77;;;16.20;99.90;;;;;;5073596;28;20047;-92
2022/07/30 06:45:05;;;;;;;27.02;22.88;;;16.20;99.90;;;;;;5072793;28;20521;-91
2022/07/30 06:47:33;;;;;;;27.70;24.77;;;16.30;99.90;;;;;;5073202;28;20036;-91
2022/07/30 06:50:00;;;;;;;26.42;23.58;;;16.40;99.90;;;;;;5072842;28;20126;-90
2022/07/30 06:52:26;;;;;;;27.40;24.38;;;16.50;99.90;;;;;;5074342;28;20043;-92
2022/07/30 06:54:51;;;;;;;24.23;21.83;;;16.50;99.90;;;;;;5072597;28;20040;-91
2022/07/30 06:57:17;;;;;;;24.42;22.13;;;16.60;99.90;;;;;;5073241;28;20452;-91
2022/07/30 06:59:43;;;;;;;25.80;23.27;;;16.60;99.90;;;;;;5072795;28;20083;-92
2022/07/30 07:02:09;;;;;;;28.48;25.77;;;16.70;99.90;;;;;;5072796;28;20478;-91
2022/07/30 07:04:35;;;;;;;25.98;23.48;;;16.80;99.90;;;;;;5072607;28;20041;-91
2022/07/30 07:07:00;;;;;;;25.85;23.23;;;16.90;99.90;;;;;;5072748;28;20486;-91
2022/07/30 07:09:26;;;;;;;24.13;19.02;;;17.00;99.90;;;;;;5072268;28;20047;-91
2022/07/30 07:11:51;;;;;;;26.13;23.42;;;17.00;99.90;;;;;;5072617;28;20533;-91
2022/07/30 07:14:17;;;;;;;27.60;24.67;;;17.00;99.90;;;;;;5072392;28;20499;-92
2022/07/30 07:16:43;;;;;;;23.77;21.27;;;17.10;99.90;;;;;;5072295;28;20055;-92
2022/07/30 07:19:08;;;;;;;24.77;22.27;;;17.30;99.90;;;;;;5073215;28;20048;-91
2022/07/30 07:21:34;;;;;;;26.88;24.17;;;17.30;99.90;;;;;;5072448;28;20405;-92
2022/07/30 07:24:01;;;;;;;25.50;22.98;;;17.40;99.90;;;;;;5072156;28;20123;-91
2022/07/30 07:26:27;;;;;;;24.52;22.00;;;17.50;99.90;;;;;;5070584;28;20048;-92
2022/07/30 07:28:53;;;;;;;24.98;22.35;;;17.60;99.90;;;;;;5072481;28;20166;-92
2022/07/30 07:31:19;;;;;;;26.33;22.38;;;17.70;99.90;;;;;;5069629;28;20583;-92
2022/07/30 07:33:45;;;;;;;22.52;20.23;;;17.70;99.90;;;;;;5071377;28;20084;-92
2022/07/30 07:36:11;;;;;;;24.58;22.05;;;17.80;99.90;;;;;;5071003;28;20179;-93
2022/07/30 07:38:37;;;;;;;27.00;24.15;;;17.90;99.90;;;;;;5070710;28;20036;-93
2022/07/30 07:41:04;;;;;;;25.48;22.88;;;18.00;99.90;;;;;;5070933;28;20075;-93
2022/07/30 07:43:30;;;;;;;23.48;20.98;;;18.00;99.90;;;;;;5070886;28;20047;-92
2022/07/30 07:45:55;;;;;;;24.02;21.48;;;18.10;99.90;;;;;;5088693;28;20464;-92
2022/07/30 07:48:21;;;;;;;22.25;19.83;;;18.10;99.90;;;;;;5073060;28;20410;-92
2022/07/30 07:50:47;;;;;;;22.52;20.15;;;18.20;99.90;;;;;;5072942;28;20056;-92
2022/07/30 07:53:12;;;;;;;23.02;19.88;;;18.20;99.90;;;;;;5071763;28;20049;-92
2022/07/30 07:55:38;;;;;;;22.58;19.38;;;18.30;99.90;;;;;;5071994;28;20074;-92
2022/07/30 07:58:04;;;;;;;21.08;18.92;;;18.30;99.90;;;;;;5071845;28;20093;-91
2022/07/30 08:00:30;;;;;;;19.75;17.73;;;18.50;99.90;;;;;;5071337;28;20044;-92
2022/07/30 08:02:56;;;;;;;22.00;19.27;;;18.50;99.90;;;;;;5071828;28;20409;-92
2022/07/30 08:05:22;;;;;;;21.23;19.13;;;18.60;99.90;;;;;;5071539;28;20093;-92
2022/07/30 08:07:48;;;;;;;20.10;18.00;;;18.70;99.90;;;;;;5071472;28;20513;-92
2022/07/30 08:10:14;;;;;;;23.05;17.95;;;18.70;99.90;;;;;;5071231;28;20037;-92
2022/07/30 08:12:41;;;;;;;18.90;17.00;;;18.80;99.90;;;;;;5071514;28;20081;-91
2022/07/30 08:15:08;;;;;;;20.52;17.63;;;19.00;99.90;;;;;;5073997;28;20515;-92
2022/07/30 08:17:41;;;;;;;19.10;16.85;;;19.00;99.90;;;;;;5073887;28;20055;-93
2022/07/30 08:20:08;;;;;;;19.42;17.42;;;19.00;99.90;;;;;;5078955;28;20075;-91
2022/07/30 08:22:34;;;;;;;17.45;15.60;;;19.00;99.90;;;;;;5072948;28;20513;-92
2022/07/30 08:24:59;;;;;;;17.20;14.95;;;19.00;99.90;;;;;;5071073;28;20252;-92
2022/07/30 08:27:25;;;;;;;17.15;14.93;;;19.10;99.90;;;;;;5088457;28;20032;-91
2022/07/30 08:29:51;;;;;;;18.13;15.07;;;19.10;99.90;;;;;;5070406;28;20543;-92
2022/07/30 08:32:16;;;;;;;15.98;13.98;;;19.20;99.90;;;;;;5071101;28;20048;-92
2022/07/30 08:34:42;;;;;;;18.98;14.15;;;19.20;99.90;;;;;;5070994;28;20044;-92
2022/07/30 08:37:08;;;;;;;17.42;14.05;;;19.20;99.90;;;;;;5070940;28;20048;-92
2022/07/30 08:39:33;;;;;;;16.33;13.80;;;19.30;99.90;;;;;;5087515;28;20417;-91
2022/07/30 08:42:01;;;;;;;15.85;13.82;;;19.30;99.90;;;;;;5070483;28;20071;-91
2022/07/30 08:44:28;;;;;;;17.55;14.43;;;19.30;99.90;;;;;;5070921;28;20558;-92
2022/07/30 08:46:56;;;;;;;16.10;11.57;;;19.50;99.90;;;;;;5071228;28;20082;-92
2022/07/30 08:49:22;;;;;;;16.35;11.43;;;19.60;99.90;;;;;;5070018;28;20543;-93
2022/07/30 08:51:49;;;;;;;15.80;10.13;;;19.70;99.90;;;;;;5071142;28;20051;-91
2022/07/30 08:54:15;;;;;;;13.80;10.50;;;19.70;99.90;;;;;;5071266;28;20409;-93
2022/07/30 08:56:41;;;;;;;15.88;9.60;;;19.90;99.90;;;;;;5071895;28;20041;-92
2022/07/30 08:59:07;;;;;;;15.35;9.10;;;19.90;99.90;;;;;;5070650;28;20406;-93
2022/07/30 09:01:32;;;;;;;13.07;8.15;;;20.00;99.90;;;;;;5071056;28;20048;-93
2022/07/30 09:03:58;;;;;;;12.57;8.30;;;20.00;99.90;;;;;;5072018;28;20458;-93
2022/07/30 09:06:24;;;;;;;15.70;8.98;;;20.10;99.90;;;;;;5071066;28;20550;-93
2022/07/30 09:08:49;;;;;;;12.90;7.75;;;20.30;99.90;;;;;;5070471;28;20036;-93
2022/07/30 09:11:15;;;;;;;14.77;8.10;;;20.30;99.90;;;;;;5070274;28;20041;-93
2022/07/30 09:13:41;;;;;;;12.60;5.97;;;20.40;99.90;;;;;;5070396;28;20037;-92
2022/07/30 09:16:21;;;;;;;14.27;6.03;;;20.50;99.90;;;;;;5070485;28;20478;-93
2022/07/30 09:18:48;;;;;;;11.77;5.60;;;20.50;99.90;;;;;;5070644;28;20414;-93
2022/07/30 09:21:13;;;;;;;11.63;5.50;;;20.60;99.90;;;;;;5070347;28;20076;-92
2022/07/30 09:23:39;;;;;;;10.90;5.85;;;20.70;99.90;;;;;;5071459;28;20076;-91
2022/07/30 09:26:05;;;;;;;12.35;5.47;;;20.70;99.90;;;;;;5070239;28;20538;-93
2022/07/30 09:28:32;;;;;;;12.20;5.65;;;20.80;99.90;;;;;;5070392;28;20036;-92
2022/07/30 09:30:59;;;;;;;11.23;5.18;;;20.90;99.90;;;;;;5071529;28;20070;-92
2022/07/30 09:33:51;;;;;;;12.57;5.55;;;20.90;99.90;;;;;;5079780;28;20040;-91
2022/07/30 09:36:17;;;;;;;9.80;4.23;;;21.10;99.90;;;;;;5083147;28;20193;-92
2022/07/30 09:38:47;;;;;;;12.77;4.45;;;21.10;99.90;;;;;;5090338;28;20077;-92
2022/07/30 09:41:17;;;;;;;9.07;4.57;;;21.10;99.90;;;;;;5090182;28;20040;-93
2022/07/30 09:43:53;;;;;;;10.20;4.55;;;21.10;99.90;;;;;;5090610;28;20036;-92
2022/07/30 09:46:19;;;;;;;9.90;4.63;;;21.20;99.90;;;;;;5091347;28;20046;-92
2022/07/30 09:48:45;;;;;;;9.95;4.07;;;21.20;99.90;;;;;;5090126;28;20405;-91
2022/07/30 09:51:11;;;;;;;10.35;4.30;;;21.30;99.90;;;;;;5090704;28;20052;-91
2022/07/30 09:53:57;;;;;;;9.05;4.80;;;21.30;99.90;;;;;;5090227;28;20567;-93
2022/07/30 09:56:25;;;;;;;11.25;4.53;;;21.40;99.90;;;;;;5094454;28;20040;-94
2022/07/30 09:58:50;;;;;;;10.20;4.47;;;21.50;99.90;;;;;;5094259;28;20111;-93
2022/07/30 10:01:16;;;;;;;11.13;4.00;;;21.60;99.90;;;;;;5094058;28;20476;-92
2022/07/30 10:03:42;;;;;;;9.32;3.65;;;21.60;99.90;;;;;;5094435;28;20032;-93
2022/07/30 10:06:09;;;;;;;9.05;3.88;;;21.70;99.90;;;;;;5094286;28;20126;-93
2022/07/30 10:08:49;;;;;;;9.15;3.47;;;21.80;99.90;;;;;;5094435;28;20042;-92
2022/07/30 10:11:23;;;;;;;10.25;4.22;;;21.90;99.90;;;;;;5093895;28;20036;-92
2022/07/30 10:13:53;;;;;;;12.45;3.90;;;22.00;99.90;;;;;;5093683;28;20048;-93
2022/07/30 10:16:19;;;;;;;10.57;3.85;;;22.00;99.90;;;;;;5095400;28;20127;-92
2022/07/30 10:18:45;;;;;;;10.77;4.20;;;22.20;99.90;;;;;;5093857;28;20119;-92
2022/07/30 10:21:12;;;;;;;10.30;3.90;;;22.20;99.90;;;;;;5094038;28;20044;-93
2022/07/30 10:23:39;;;;;;;11.38;3.95;;;22.30;99.90;;;;;;5093995;28;20044;-91
2022/07/30 10:26:07;;;;;;;11.88;3.60;;;22.30;99.90;;;;;;5093855;28;20508;-91
2022/07/30 10:28:33;;;;;;;10.88;3.80;;;22.30;99.90;;;;;;5093867;28;20048;-92
2022/07/30 10:30:59;;;;;;;10.27;4.00;;;22.40;99.90;;;;;;5094622;28;20412;-91
2022/07/30 10:33:28;;;;;;;9.15;3.75;;;22.50;99.90;;;;;;5093843;28;20123;-92
2022/07/30 10:35:54;;;;;;;14.18;4.15;;;22.50;99.90;;;;;;5110607;28;20044;-93
2022/07/30 10:38:27;;;;;;;11.00;4.32;;;22.60;99.90;;;;;;5093985;28;20123;-92
2022/07/30 10:41:09;;;;;;;10.07;3.97;;;22.70;99.90;;;;;;5093420;28;20039;-93
2022/07/30 10:43:56;;;;;;;9.98;3.65;;;22.60;99.90;;;;;;5093542;28;20473;-92
2022/07/30 10:46:35;;;;;;;9.38;3.70;;;22.60;99.90;;;;;;5094793;28;20571;-93
2022/07/30 10:49:27;;;;;;;12.95;4.18;;;22.60;99.90;;;;;;5093152;28;20398;-92
2022/07/30 10:51:56;;;;;;;10.45;3.20;;;22.70;99.90;;;;;;5090849;28;20137;-93
2022/07/30 10:54:33;;;;;;;10.70;3.65;;;22.70;99.90;;;;;;5094841;28;20040;-93
2022/07/30 10:57:15;;;;;;;9.82;3.58;;;22.80;99.90;;;;;;5093290;28;20040;-93
2022/07/30 10:59:57;;;;;;;9.80;4.10;;;22.90;99.90;;;;;;5093022;28;20062;-93
2022/07/30 11:02:24;;;;;;;9.88;3.55;;;23.00;99.90;;;;;;5093465;28;20044;-93
2022/07/30 11:05:10;;;;;;;9.43;3.70;;;23.00;99.90;;;;;;5093259;28;20398;-93
2022/07/30 11:07:35;;;;;;;10.35;3.83;;;22.90;99.90;;;;;;5094495;28;20051;-93
2022/07/30 11:10:01;;;;;;;10.35;3.28;;;22.90;99.90;;;;;;5092557;28;20036;-93
2022/07/30 11:12:43;;;;;;;10.20;3.97;;;23.00;99.90;;;;;;5115938;28;20254;-93
2022/07/30 11:15:13;;;;;;;9.05;3.63;;;23.20;99.90;;;;;;5124226;28;20060;-93
2022/07/30 11:18:00;;;;;;;8.57;3.45;;;23.10;99.90;;;;;;5120282;28;20028;-93
2022/07/30 11:20:27;;;;;;;9.00;3.72;;;23.10;99.90;;;;;;5120361;28;20048;-93
2022/07/30 11:22:53;;;;;;;8.55;3.45;;;23.10;99.90;;;;;;5120355;28;20047;-93
2022/07/30 11:25:28;;;;;;;9.40;3.33;;;23.20;99.90;;;;;;5133421;27;20036;-93
2022/07/30 11:27:54;;;;;;;8.93;3.50;;;23.30;99.90;;;;;;5127583;28;20052;-92
2022/07/30 11:30:20;;;;;;;9.02;3.60;;;23.50;99.90;;;;;;5109673;28;20060;-93
2022/07/30 11:32:48;;;;;;;8.32;3.00;;;23.40;99.90;;;;;;5112879;28;20413;-93
2022/07/30 11:35:17;;;;;;;9.65;3.15;;;23.40;99.90;;;;;;5092431;28;20055;-92
2022/07/30 11:38:06;;;;;;;9.05;3.05;;;23.40;99.80;;;;;;5109657;28;20044;-92
2022/07/30 11:40:32;;;;;;;8.07;2.40;;;23.60;99.40;;;;;;5082577;28;20501;-93
2022/07/30 11:43:17;;;;;;;9.70;2.92;;;23.70;98.80;;;;;;5109413;28;20079;-91
2022/07/30 11:45:47;;;;;;;8.82;3.22;;;23.70;96.90;;;;;;5109099;28;20047;-91
2022/07/30 11:48:14;;;;;;;9.50;2.85;;;23.60;96.80;;;;;;5092154;28;20051;-91
2022/07/30 11:50:41;;;;;;;9.05;3.10;;;23.70;95.70;;;;;;5108986;28;20036;-92
2022/07/30 11:53:12;;;;;;;8.48;3.08;;;23.80;96.50;;;;;;5109145;28;20157;-93
2022/07/30 11:55:43;;;;;;;8.27;3.38;;;23.90;98.50;;;;;;5092426;28;20094;-93
2022/07/30 11:58:23;;;;;;;9.75;3.03;;;24.00;99.90;;;;;;5092110;28;20063;-93
2022/07/30 12:00:49;;;;;;;7.97;2.80;;;24.20;98.50;;;;;;5091986;28;20044;-92
2022/07/30 12:03:17;;;;;;;7.63;2.38;;;24.40;94.70;;;;;;5091984;28;20043;-92
2022/07/30 12:05:44;;;;;;;8.32;2.80;;;24.30;90.70;;;;;;5108882;28;20043;-93
2022/07/30 12:08:11;;;;;;;7.88;2.33;;;24.40;92.00;;;;;;5108648;28;20553;-92
2022/07/30 12:10:40;;;;;;;9.02;2.55;;;24.40;91.40;;;;;;5108216;28;20054;-92
2022/07/30 12:13:14;;;;;;;8.30;2.60;;;24.40;92.40;;;;;;5091796;28;20072;-93
2022/07/30 12:15:45;;;;;;;9.50;2.83;;;24.40;90.00;;;;;;5091921;28;20040;-92
2022/07/30 12:18:12;;;;;;;7.23;2.30;;;24.50;90.40;;;;;;5092354;28;20476;-93
2022/07/30 12:20:39;;;;;;;8.48;2.53;;;24.40;91.60;;;;;;5108678;28;20485;-92
2022/07/30 12:23:12;;;;;;;8.38;2.55;;;24.50;92.30;;;;;;5108933;28;20043;-93
2022/07/30 12:25:40;;;;;;;9.48;2.70;;;24.50;92.70;;;;;;5091053;28;20044;-93
2022/07/30 12:28:07;;;;;;;8.98;2.55;;;24.30;92.40;;;;;;5108662;28;20517;-93
2022/07/30 12:30:33;;;;;;;7.65;2.72;;;24.20;93.90;;;;;;5091109;28;20413;-92
2022/07/30 12:32:58;;;;;;;8.02;2.60;;;24.30;95.70;;;;;;5091160;28;20036;-92
2022/07/30 12:35:51;;;;;;;8.68;2.30;;;24.40;93.20;;;;;;5091434;28;20052;-93
2022/07/30 12:38:18;;;;;;;7.00;2.53;;;24.50;92.30;;;;;;5091305;28;20048;-93
2022/07/30 12:40:51;;;;;;;7.80;2.45;;;24.50;89.60;;;;;;5087442;28;20134;-93
2022/07/30 12:43:16;;;;;;;9.50;2.92;;;24.60;86.80;;;;;;5077258;28;20098;-92